sensor_id;sensor_type;location;lat;lon;timestamp;pressure;altitude;pressure_sealevel;temperature;humidity
41712;BME280;27399;51.516;13.670;2022-09-09T00:01:38;100073.06;;;17.00;92.65
41712;BME280;27399;51.516;13.670;2022-09-09T00:04:33;100073.19;;;16.73;93.41
41712;BME280;27399;51.516;13.670;2022-09-09T00:07:19;100082.00;;;16.78;92.10
41712;BME280;27399;51.516;13.670;2022-09-09T00:09:57;100077.66;;;16.74;92.45
41712;BME280;27399;51.516;13.670;2022-09-09T00:13:24;100081.41;;;16.70;93.69
41712;BME280;27399;51.516;13.670;2022-09-09T00:16:15;100069.84;;;16.68;93.80
41712;BME280;27399;51.516;13.670;2022-09-09T00:19:05;100078.28;;;16.58;94.14
41712;BME280;27399;51.516;13.670;2022-09-09T00:21:37;100078.94;;;16.64;93.66
41712;BME280;27399;51.516;13.670;2022-09-09T00:24:26;100073.44;;;16.67;93.74
41712;BME280;27399;51.516;13.670;2022-09-09T00:27:01;100070.19;;;16.58;93.72
41712;BME280;27399;51.516;13.670;2022-09-09T00:30:28;100067.78;;;16.51;94.06
41712;BME280;27399;51.516;13.670;2022-09-09T00:32:29;100066.56;;;16.60;93.21
41712;BME280;27399;51.516;13.670;2022-09-09T00:35:16;100067.97;;;16.70;93.24
41712;BME280;27399;51.516;13.670;2022-09-09T00:37:45;100071.31;;;16.53;93.15
41712;BME280;27399;51.516;13.670;2022-09-09T00:40:34;100075.63;;;16.57;93.53
41712;BME280;27399;51.516;13.670;2022-09-09T00:43:25;100071.72;;;16.42;93.36
41712;BME280;27399;51.516;13.670;2022-09-09T00:45:58;100070.50;;;16.51;92.48
41712;BME280;27399;51.516;13.670;2022-09-09T00:48:38;100079.44;;;16.51;92.71
41712;BME280;27399;51.516;13.670;2022-09-09T00:51:15;100063.63;;;16.42;92.29
41712;BME280;27399;51.516;13.670;2022-09-09T00:54:15;100079.78;;;16.42;91.77
41712;BME280;27399;51.516;13.670;2022-09-09T00:59:23;100080.03;;;16.36;92.14
41712;BME280;27399;51.516;13.670;2022-09-09T01:01:51;100071.78;;;16.40;92.84
41712;BME280;27399;51.516;13.670;2022-09-09T01:04:27;100073.25;;;16.25;92.97
41712;BME280;27399;51.516;13.670;2022-09-09T01:07:12;100071.59;;;16.45;92.74
41712;BME280;27399;51.516;13.670;2022-09-09T01:12:16;100066.09;;;16.24;93.31
41712;BME280;27399;51.516;13.670;2022-09-09T01:14:47;100064.25;;;16.26;93.41
41712;BME280;27399;51.516;13.670;2022-09-09T01:20:21;100076.34;;;16.38;91.70
41712;BME280;27399;51.516;13.670;2022-09-09T01:28:12;100073.16;;;16.27;92.10
41712;BME280;27399;51.516;13.670;2022-09-09T01:30:41;100078.28;;;16.35;91.88
41712;BME280;27399;51.516;13.670;2022-09-09T01:33:12;100071.47;;;16.24;92.30
41712;BME280;27399;51.516;13.670;2022-09-09T01:35:59;100082.00;;;16.07;92.71
41712;BME280;27399;51.516;13.670;2022-09-09T01:38:28;100082.81;;;16.09;93.17
41712;BME280;27399;51.516;13.670;2022-09-09T01:40:54;100084.69;;;16.07;93.49
41712;BME280;27399;51.516;13.670;2022-09-09T01:43:21;100077.75;;;16.00;92.90
41712;BME280;27399;51.516;13.670;2022-09-09T01:45:49;100072.44;;;15.98;92.79
41712;BME280;27399;51.516;13.670;2022-09-09T01:48:18;100082.75;;;16.10;92.88
41712;BME280;27399;51.516;13.670;2022-09-09T01:50:44;100075.84;;;16.03;92.50
41712;BME280;27399;51.516;13.670;2022-09-09T01:53:10;100077.47;;;15.82;93.06
41712;BME280;27399;51.516;13.670;2022-09-09T01:55:41;100082.03;;;15.80;93.28
41712;BME280;27399;51.516;13.670;2022-09-09T02:03:51;100076.13;;;15.70;93.37
41712;BME280;27399;51.516;13.670;2022-09-09T02:06:38;100079.84;;;15.91;92.23
41712;BME280;27399;51.516;13.670;2022-09-09T02:09:06;100079.66;;;15.98;92.34
41712;BME280;27399;51.516;13.670;2022-09-09T02:11:33;100082.09;;;16.04;92.20
41712;BME280;27399;51.516;13.670;2022-09-09T02:14:06;100087.75;;;15.96;91.86
41712;BME280;27399;51.516;13.670;2022-09-09T02:16:43;100095.72;;;15.72;90.81
41712;BME280;27399;51.516;13.670;2022-09-09T02:19:14;100090.31;;;15.74;91.54
41712;BME280;27399;51.516;13.670;2022-09-09T02:21:44;100083.84;;;15.79;92.03
41712;BME280;27399;51.516;13.670;2022-09-09T02:24:13;100064.38;;;15.73;92.24
41712;BME280;27399;51.516;13.670;2022-09-09T02:26:42;100083.63;;;15.87;92.47
41712;BME280;27399;51.516;13.670;2022-09-09T02:29:14;100083.09;;;15.76;92.32
41712;BME280;27399;51.516;13.670;2022-09-09T02:31:42;100085.47;;;15.85;92.19
41712;BME280;27399;51.516;13.670;2022-09-09T02:34:10;100087.97;;;15.64;93.24
41712;BME280;27399;51.516;13.670;2022-09-09T02:36:40;100087.81;;;15.68;92.17
41712;BME280;27399;51.516;13.670;2022-09-09T02:39:08;100081.41;;;15.72;92.58
41712;BME280;27399;51.516;13.670;2022-09-09T02:41:38;100076.66;;;15.80;92.38
41712;BME280;27399;51.516;13.670;2022-09-09T02:44:15;100081.91;;;15.83;92.21
41712;BME280;27399;51.516;13.670;2022-09-09T02:49:15;100085.34;;;15.88;92.27
41712;BME280;27399;51.516;13.670;2022-09-09T02:56:52;100090.31;;;15.74;92.58
41712;BME280;27399;51.516;13.670;2022-09-09T02:59:21;100092.34;;;15.67;92.38
41712;BME280;27399;51.516;13.670;2022-09-09T03:01:47;100094.88;;;15.72;92.41
41712;BME280;27399;51.516;13.670;2022-09-09T03:04:13;100099.38;;;15.71;91.76
41712;BME280;27399;51.516;13.670;2022-09-09T03:06:39;100099.91;;;15.81;90.92
41712;BME280;27399;51.516;13.670;2022-09-09T03:09:05;100091.63;;;15.89;89.83
41712;BME280;27399;51.516;13.670;2022-09-09T03:11:30;100093.47;;;15.87;89.43
41712;BME280;27399;51.516;13.670;2022-09-09T03:13:56;100099.03;;;15.80;89.75
41712;BME280;27399;51.516;13.670;2022-09-09T03:16:23;100090.06;;;15.82;90.42
41712;BME280;27399;51.516;13.670;2022-09-09T03:18:48;100099.31;;;15.73;89.78
41712;BME280;27399;51.516;13.670;2022-09-09T03:21:14;100103.75;;;15.74;89.72
41712;BME280;27399;51.516;13.670;2022-09-09T03:23:40;100091.00;;;15.79;89.77
41712;BME280;27399;51.516;13.670;2022-09-09T03:26:05;100097.28;;;15.79;90.22
41712;BME280;27399;51.516;13.670;2022-09-09T03:28:31;100096.56;;;15.74;90.43
41712;BME280;27399;51.516;13.670;2022-09-09T03:31:04;100108.03;;;15.54;90.28
41712;BME280;27399;51.516;13.670;2022-09-09T03:33:30;100112.34;;;15.58;90.17
41712;BME280;27399;51.516;13.670;2022-09-09T03:35:57;100106.88;;;15.61;90.35
41712;BME280;27399;51.516;13.670;2022-09-09T03:38:24;100097.31;;;15.53;90.24
41712;BME280;27399;51.516;13.670;2022-09-09T03:40:54;100096.44;;;15.52;90.09
41712;BME280;27399;51.516;13.670;2022-09-09T03:43:23;100097.88;;;15.36;89.89
41712;BME280;27399;51.516;13.670;2022-09-09T03:45:49;100093.84;;;15.49;89.52
41712;BME280;27399;51.516;13.670;2022-09-09T03:48:16;100097.78;;;15.39;89.08
41712;BME280;27399;51.516;13.670;2022-09-09T03:50:53;100098.84;;;15.33;89.07
41712;BME280;27399;51.516;13.670;2022-09-09T03:53:20;100096.56;;;15.21;89.78
41712;BME280;27399;51.516;13.670;2022-09-09T03:55:48;100092.94;;;15.23;91.11
41712;BME280;27399;51.516;13.670;2022-09-09T03:58:16;100097.63;;;15.16;91.61
41712;BME280;27399;51.516;13.670;2022-09-09T04:00:55;100083.41;;;15.13;90.92
41712;BME280;27399;51.516;13.670;2022-09-09T04:03:47;100096.72;;;15.16;91.11
41712;BME280;27399;51.516;13.670;2022-09-09T04:06:13;100096.56;;;15.21;91.16
41712;BME280;27399;51.516;13.670;2022-09-09T04:08:40;100102.59;;;15.29;91.05
41712;BME280;27399;51.516;13.670;2022-09-09T04:11:07;100079.06;;;15.09;91.10
41712;BME280;27399;51.516;13.670;2022-09-09T04:13:36;100093.31;;;15.11;91.10
41712;BME280;27399;51.516;13.670;2022-09-09T04:16:05;100081.50;;;15.16;90.72
41712;BME280;27399;51.516;13.670;2022-09-09T04:18:32;100085.16;;;15.14;90.39
41712;BME280;27399;51.516;13.670;2022-09-09T04:20:58;100097.31;;;15.26;90.11
41712;BME280;27399;51.516;13.670;2022-09-09T04:23:25;100090.28;;;15.22;89.82
41712;BME280;27399;51.516;13.670;2022-09-09T04:25:57;100104.47;;;15.25;90.45
41712;BME280;27399;51.516;13.670;2022-09-09T04:28:25;100095.25;;;15.34;90.26
41712;BME280;27399;51.516;13.670;2022-09-09T04:30:51;100098.41;;;15.20;90.97
41712;BME280;27399;51.516;13.670;2022-09-09T04:33:18;100091.19;;;15.21;90.49
41712;BME280;27399;51.516;13.670;2022-09-09T04:35:48;100090.34;;;15.20;90.26
41712;BME280;27399;51.516;13.670;2022-09-09T04:38:16;100105.63;;;15.18;90.79
41712;BME280;27399;51.516;13.670;2022-09-09T04:40:43;100070.56;;;14.94;91.13
41712;BME280;27399;51.516;13.670;2022-09-09T04:43:09;100075.84;;;14.97;91.36
41712;BME280;27399;51.516;13.670;2022-09-09T04:45:35;100080.16;;;15.03;90.84
41712;BME280;27399;51.516;13.670;2022-09-09T04:48:02;100095.13;;;15.10;90.93
41712;BME280;27399;51.516;13.670;2022-09-09T04:50:28;100098.69;;;15.11;90.85
41712;BME280;27399;51.516;13.670;2022-09-09T04:52:54;100111.00;;;15.18;90.84
41712;BME280;27399;51.516;13.670;2022-09-09T04:55:19;100094.34;;;15.07;91.36
41712;BME280;27399;51.516;13.670;2022-09-09T04:57:45;100102.06;;;15.17;91.19
41712;BME280;27399;51.516;13.670;2022-09-09T05:00:12;100104.59;;;15.22;90.75
41712;BME280;27399;51.516;13.670;2022-09-09T05:02:38;100090.50;;;15.15;90.79
41712;BME280;27399;51.516;13.670;2022-09-09T05:05:05;100115.28;;;15.24;89.83
41712;BME280;27399;51.516;13.670;2022-09-09T05:07:31;100098.84;;;15.06;89.97
41712;BME280;27399;51.516;13.670;2022-09-09T05:09:57;100120.91;;;15.16;89.97
41712;BME280;27399;51.516;13.670;2022-09-09T05:12:24;100115.22;;;15.25;90.93
41712;BME280;27399;51.516;13.670;2022-09-09T05:14:56;100115.59;;;15.14;91.29
41712;BME280;27399;51.516;13.670;2022-09-09T05:17:22;100113.69;;;15.18;91.47
41712;BME280;27399;51.516;13.670;2022-09-09T05:19:48;100101.53;;;15.06;91.40
41712;BME280;27399;51.516;13.670;2022-09-09T05:22:19;100108.16;;;14.94;92.00
41712;BME280;27399;51.516;13.670;2022-09-09T05:24:45;100117.03;;;15.25;90.81
41712;BME280;27399;51.516;13.670;2022-09-09T05:27:11;100119.66;;;15.26;91.66
41712;BME280;27399;51.516;13.670;2022-09-09T05:29:38;100105.53;;;15.21;91.79
41712;BME280;27399;51.516;13.670;2022-09-09T05:32:04;100124.25;;;15.23;91.80
41712;BME280;27399;51.516;13.670;2022-09-09T05:34:30;100123.78;;;15.38;91.91
41712;BME280;27399;51.516;13.670;2022-09-09T05:36:56;100126.81;;;15.27;91.90
41712;BME280;27399;51.516;13.670;2022-09-09T05:39:22;100127.47;;;15.34;91.78
41712;BME280;27399;51.516;13.670;2022-09-09T05:41:47;100126.50;;;15.37;92.08
41712;BME280;27399;51.516;13.670;2022-09-09T05:44:13;100118.56;;;15.33;92.64
41712;BME280;27399;51.516;13.670;2022-09-09T05:46:39;100120.34;;;15.33;93.22
41712;BME280;27399;51.516;13.670;2022-09-09T05:49:05;100121.53;;;15.24;93.73
41712;BME280;27399;51.516;13.670;2022-09-09T05:51:31;100129.25;;;15.35;93.56
41712;BME280;27399;51.516;13.670;2022-09-09T05:53:57;100126.16;;;15.47;93.39
41712;BME280;27399;51.516;13.670;2022-09-09T05:56:27;100136.00;;;15.47;92.94
41712;BME280;27399;51.516;13.670;2022-09-09T05:58:54;100136.94;;;15.46;93.50
41712;BME280;27399;51.516;13.670;2022-09-09T06:01:23;100130.16;;;15.61;93.30
41712;BME280;27399;51.516;13.670;2022-09-09T06:03:53;100138.75;;;15.45;93.45
41712;BME280;27399;51.516;13.670;2022-09-09T06:06:21;100140.44;;;15.49;94.17
41712;BME280;27399;51.516;13.670;2022-09-09T06:08:49;100137.59;;;15.54;94.28
41712;BME280;27399;51.516;13.670;2022-09-09T06:11:21;100129.38;;;15.57;94.50
41712;BME280;27399;51.516;13.670;2022-09-09T06:13:48;100136.44;;;15.61;94.43
41712;BME280;27399;51.516;13.670;2022-09-09T06:16:18;100143.09;;;15.76;94.44
41712;BME280;27399;51.516;13.670;2022-09-09T06:18:45;100137.88;;;15.72;95.15
41712;BME280;27399;51.516;13.670;2022-09-09T06:21:18;100150.28;;;15.76;95.38
41712;BME280;27399;51.516;13.670;2022-09-09T06:23:45;100139.53;;;15.76;96.39
41712;BME280;27399;51.516;13.670;2022-09-09T06:26:17;100144.91;;;15.76;96.64
41712;BME280;27399;51.516;13.670;2022-09-09T06:28:44;100129.41;;;15.84;97.02
41712;BME280;27399;51.516;13.670;2022-09-09T06:31:13;100145.81;;;16.02;96.97
41712;BME280;27399;51.516;13.670;2022-09-09T06:33:41;100130.91;;;16.18;97.16
41712;BME280;27399;51.516;13.670;2022-09-09T06:36:13;100130.56;;;16.27;97.79
41712;BME280;27399;51.516;13.670;2022-09-09T06:38:41;100140.72;;;16.45;97.83
41712;BME280;27399;51.516;13.670;2022-09-09T06:41:08;100140.53;;;16.49;97.44
41712;BME280;27399;51.516;13.670;2022-09-09T06:43:34;100144.28;;;16.69;96.75
41712;BME280;27399;51.516;13.670;2022-09-09T06:46:03;100154.03;;;16.71;96.88
41712;BME280;27399;51.516;13.670;2022-09-09T06:48:29;100153.06;;;16.98;96.75
41712;BME280;27399;51.516;13.670;2022-09-09T06:53:32;100135.47;;;17.11;94.50
41712;BME280;27399;51.516;13.670;2022-09-09T06:56:19;100155.53;;;17.26;92.03
41712;BME280;27399;51.516;13.670;2022-09-09T06:58:47;100144.69;;;17.50;91.38
41712;BME280;27399;51.516;13.670;2022-09-09T07:01:19;100136.09;;;17.40;92.67
41712;BME280;27399;51.516;13.670;2022-09-09T07:03:47;100127.59;;;17.72;90.45
41712;BME280;27399;51.516;13.670;2022-09-09T07:06:21;100145.72;;;17.89;90.67
41712;BME280;27399;51.516;13.670;2022-09-09T07:08:56;100142.41;;;18.04;90.81
41712;BME280;27399;51.516;13.670;2022-09-09T07:11:25;100144.50;;;17.98;90.65
41712;BME280;27399;51.516;13.670;2022-09-09T07:13:53;100152.72;;;18.15;88.79
41712;BME280;27399;51.516;13.670;2022-09-09T07:16:20;100150.84;;;18.17;90.25
41712;BME280;27399;51.516;13.670;2022-09-09T07:18:46;100143.59;;;18.38;88.71
41712;BME280;27399;51.516;13.670;2022-09-09T07:21:13;100150.59;;;18.42;88.26
41712;BME280;27399;51.516;13.670;2022-09-09T07:23:40;100155.19;;;18.61;88.11
41712;BME280;27399;51.516;13.670;2022-09-09T07:26:11;100148.84;;;18.62;88.33
41712;BME280;27399;51.516;13.670;2022-09-09T07:28:39;100157.16;;;18.77;88.50
41712;BME280;27399;51.516;13.670;2022-09-09T07:31:10;100150.38;;;18.87;87.49
41712;BME280;27399;51.516;13.670;2022-09-09T07:33:38;100146.88;;;19.04;86.01
41712;BME280;27399;51.516;13.670;2022-09-09T07:36:09;100139.16;;;18.96;85.99
41712;BME280;27399;51.516;13.670;2022-09-09T07:38:43;100145.59;;;19.13;84.23
41712;BME280;27399;51.516;13.670;2022-09-09T07:41:13;100148.09;;;19.16;84.86
41712;BME280;27399;51.516;13.670;2022-09-09T07:43:43;100149.63;;;19.22;84.72
41712;BME280;27399;51.516;13.670;2022-09-09T07:46:11;100154.81;;;19.26;83.07
41712;BME280;27399;51.516;13.670;2022-09-09T07:48:38;100157.72;;;19.41;85.26
41712;BME280;27399;51.516;13.670;2022-09-09T07:51:14;100150.06;;;19.31;82.35
41712;BME280;27399;51.516;13.670;2022-09-09T07:53:43;100155.00;;;19.60;80.48
41712;BME280;27399;51.516;13.670;2022-09-09T07:56:12;100159.53;;;19.77;84.22
41712;BME280;27399;51.516;13.670;2022-09-09T07:58:40;100163.94;;;19.97;82.90
41712;BME280;27399;51.516;13.670;2022-09-09T08:01:12;100164.50;;;20.04;80.79
41712;BME280;27399;51.516;13.670;2022-09-09T08:03:38;100144.59;;;20.05;81.23
41712;BME280;27399;51.516;13.670;2022-09-09T08:06:07;100158.66;;;20.29;79.96
41712;BME280;27399;51.516;13.670;2022-09-09T08:08:34;100159.06;;;20.21;81.27
41712;BME280;27399;51.516;13.670;2022-09-09T08:11:27;100176.75;;;20.11;79.08
41712;BME280;27399;51.516;13.670;2022-09-09T08:13:53;100167.91;;;20.42;79.31
41712;BME280;27399;51.516;13.670;2022-09-09T08:16:25;100165.03;;;20.46;79.26
41712;BME280;27399;51.516;13.670;2022-09-09T08:18:52;100175.81;;;20.12;78.94
41712;BME280;27399;51.516;13.670;2022-09-09T08:21:21;100172.44;;;20.24;78.43
41712;BME280;27399;51.516;13.670;2022-09-09T08:23:47;100167.50;;;20.50;78.71
41712;BME280;27399;51.516;13.670;2022-09-09T08:26:18;100156.66;;;20.50;77.66
41712;BME280;27399;51.516;13.670;2022-09-09T08:28:49;100175.41;;;20.71;78.79
41712;BME280;27399;51.516;13.670;2022-09-09T08:31:18;100174.34;;;20.73;77.22
41712;BME280;27399;51.516;13.670;2022-09-09T08:33:45;100174.25;;;20.93;78.59
41712;BME280;27399;51.516;13.670;2022-09-09T08:36:13;100176.84;;;20.78;78.15
41712;BME280;27399;51.516;13.670;2022-09-09T08:38:41;100170.22;;;20.84;78.57
41712;BME280;27399;51.516;13.670;2022-09-09T08:41:35;100167.41;;;20.85;81.12
41712;BME280;27399;51.516;13.670;2022-09-09T08:47:21;100167.75;;;20.79;78.07
41712;BME280;27399;51.516;13.670;2022-09-09T08:50:38;100166.13;;;21.09;78.08
41712;BME280;27399;51.516;13.670;2022-09-09T08:55:22;100169.91;;;21.85;77.08
41712;BME280;27399;51.516;13.670;2022-09-09T08:57:53;100173.81;;;22.25;75.39
41712;BME280;27399;51.516;13.670;2022-09-09T09:00:20;100179.50;;;22.66;75.57
41712;BME280;27399;51.516;13.670;2022-09-09T09:06:16;100177.66;;;22.81;76.65
41712;BME280;27399;51.516;13.670;2022-09-09T09:08:49;100175.91;;;23.23;71.47
41712;BME280;27399;51.516;13.670;2022-09-09T09:11:17;100171.84;;;22.58;70.73
41712;BME280;27399;51.516;13.670;2022-09-09T09:14:07;100179.41;;;22.67;70.83
41712;BME280;27399;51.516;13.670;2022-09-09T09:19:16;100171.28;;;22.53;71.93
41712;BME280;27399;51.516;13.670;2022-09-09T09:24:36;100181.56;;;21.87;74.32
41712;BME280;27399;51.516;13.670;2022-09-09T09:27:16;100179.31;;;21.79;74.94
41712;BME280;27399;51.516;13.670;2022-09-09T09:29:44;100167.09;;;21.86;74.61
41712;BME280;27399;51.516;13.670;2022-09-09T09:32:14;100176.84;;;21.58;74.72
41712;BME280;27399;51.516;13.670;2022-09-09T09:34:41;100173.63;;;21.67;78.27
41712;BME280;27399;51.516;13.670;2022-09-09T09:37:17;100171.56;;;21.25;77.51
41712;BME280;27399;51.516;13.670;2022-09-09T09:39:44;100176.28;;;21.53;77.06
41712;BME280;27399;51.516;13.670;2022-09-09T09:42:16;100166.53;;;21.49;77.38
41712;BME280;27399;51.516;13.670;2022-09-09T09:44:42;100182.47;;;21.39;77.84
41712;BME280;27399;51.516;13.670;2022-09-09T09:47:13;100180.66;;;21.24;77.97
41712;BME280;27399;51.516;13.670;2022-09-09T09:49:39;100183.00;;;20.64;78.57
41712;BME280;27399;51.516;13.670;2022-09-09T09:52:17;100186.38;;;21.01;78.66
41712;BME280;27399;51.516;13.670;2022-09-09T09:54:46;100183.09;;;21.12;79.25
41712;BME280;27399;51.516;13.670;2022-09-09T09:57:14;100189.13;;;21.17;80.17
41712;BME280;27399;51.516;13.670;2022-09-09T09:59:41;100190.56;;;20.91;79.47
41712;BME280;27399;51.516;13.670;2022-09-09T10:04:36;100201.75;;;20.51;80.38
41712;BME280;27399;51.516;13.670;2022-09-09T10:07:16;100193.28;;;20.57;81.78
41712;BME280;27399;51.516;13.670;2022-09-09T10:09:43;100187.91;;;20.73;80.97
41712;BME280;27399;51.516;13.670;2022-09-09T10:31:57;100194.63;;;20.49;82.36
41712;BME280;27399;51.516;13.670;2022-09-09T10:42:59;100165.31;;;19.88;79.15
41712;BME280;27399;51.516;13.670;2022-09-09T10:49:03;100172.81;;;20.52;80.12
41712;BME280;27399;51.516;13.670;2022-09-09T10:51:41;100182.47;;;21.07;81.10
41712;BME280;27399;51.516;13.670;2022-09-09T10:56:54;100178.19;;;21.35;76.02
41712;BME280;27399;51.516;13.670;2022-09-09T10:59:28;100177.03;;;21.55;77.81
41712;BME280;27399;51.516;13.670;2022-09-09T11:02:14;100172.06;;;21.79;75.93
41712;BME280;27399;51.516;13.670;2022-09-09T11:04:48;100175.78;;;21.77;75.84
41712;BME280;27399;51.516;13.670;2022-09-09T11:07:36;100160.03;;;21.83;74.81
41712;BME280;27399;51.516;13.670;2022-09-09T11:10:11;100165.34;;;22.16;75.89
41712;BME280;27399;51.516;13.670;2022-09-09T11:12:39;100155.84;;;22.23;73.15
41712;BME280;27399;51.516;13.670;2022-09-09T11:15:19;100160.59;;;22.05;72.03
41712;BME280;27399;51.516;13.670;2022-09-09T11:17:58;100157.69;;;22.53;72.02
41712;BME280;27399;51.516;13.670;2022-09-09T11:20:25;100159.53;;;22.67;71.81
41712;BME280;27399;51.516;13.670;2022-09-09T11:23:03;100160.16;;;22.99;71.75
41712;BME280;27399;51.516;13.670;2022-09-09T11:25:48;100158.72;;;22.94;70.45
41712;BME280;27399;51.516;13.670;2022-09-09T11:28:41;100153.53;;;23.32;70.26
41712;BME280;27399;51.516;13.670;2022-09-09T11:42:17;100123.59;;;23.73;67.86
41712;BME280;27399;51.516;13.670;2022-09-09T11:44:44;100133.94;;;24.08;69.75
41712;BME280;27399;51.516;13.670;2022-09-09T11:47:23;100138.34;;;23.83;66.69
41712;BME280;27399;51.516;13.670;2022-09-09T11:49:52;100130.91;;;24.00;66.70
41712;BME280;27399;51.516;13.670;2022-09-09T11:52:22;100133.97;;;24.34;67.15
41712;BME280;27399;51.516;13.670;2022-09-09T11:54:49;100112.06;;;24.22;67.87
41712;BME280;27399;51.516;13.670;2022-09-09T11:57:30;100127.97;;;24.28;67.50
41712;BME280;27399;51.516;13.670;2022-09-09T11:59:57;100122.72;;;24.25;67.12
41712;BME280;27399;51.516;13.670;2022-09-09T12:02:26;100109.00;;;24.40;67.90
41712;BME280;27399;51.516;13.670;2022-09-09T12:05:08;100114.00;;;24.59;68.46
41712;BME280;27399;51.516;13.670;2022-09-09T12:07:51;100102.03;;;24.36;66.44
41712;BME280;27399;51.516;13.670;2022-09-09T12:12:53;100124.69;;;24.49;66.42
41712;BME280;27399;51.516;13.670;2022-09-09T12:15:26;100121.44;;;24.44;66.13
41712;BME280;27399;51.516;13.670;2022-09-09T12:17:56;100110.53;;;24.18;65.15
41712;BME280;27399;51.516;13.670;2022-09-09T12:20:36;100113.13;;;24.58;66.29
41712;BME280;27399;51.516;13.670;2022-09-09T12:29:02;100108.34;;;24.23;67.54
41712;BME280;27399;51.516;13.670;2022-09-09T12:31:39;100118.38;;;24.10;66.76
41712;BME280;27399;51.516;13.670;2022-09-09T12:34:24;100125.56;;;24.11;67.38
41712;BME280;27399;51.516;13.670;2022-09-09T12:36:58;100127.19;;;24.26;67.19
41712;BME280;27399;51.516;13.670;2022-09-09T12:39:38;100122.94;;;23.96;67.72
41712;BME280;27399;51.516;13.670;2022-09-09T12:42:16;100120.63;;;23.90;68.72
41712;BME280;27399;51.516;13.670;2022-09-09T12:44:53;100116.50;;;24.10;72.05
41712;BME280;27399;51.516;13.670;2022-09-09T12:47:23;100115.78;;;24.21;69.26
41712;BME280;27399;51.516;13.670;2022-09-09T12:49:50;100113.13;;;24.20;68.82
41712;BME280;27399;51.516;13.670;2022-09-09T12:52:29;100110.75;;;24.28;67.42
41712;BME280;27399;51.516;13.670;2022-09-09T12:54:56;100112.94;;;24.23;67.49
41712;BME280;27399;51.516;13.670;2022-09-09T12:57:24;100107.38;;;24.50;67.89
41712;BME280;27399;51.516;13.670;2022-09-09T12:59:51;100098.75;;;24.69;68.45
41712;BME280;27399;51.516;13.670;2022-09-09T13:02:23;100103.69;;;24.38;67.56
41712;BME280;27399;51.516;13.670;2022-09-09T13:04:52;100103.75;;;24.63;68.66
41712;BME280;27399;51.516;13.670;2022-09-09T13:07:20;100107.91;;;24.42;71.81
41712;BME280;27399;51.516;13.670;2022-09-09T13:09:47;100107.25;;;24.39;67.40
41712;BME280;27399;51.516;13.670;2022-09-09T13:12:21;100104.97;;;24.07;65.42
41712;BME280;27399;51.516;13.670;2022-09-09T13:14:53;100100.94;;;24.38;64.04
41712;BME280;27399;51.516;13.670;2022-09-09T13:17:24;100099.09;;;24.39;65.17
41712;BME280;27399;51.516;13.670;2022-09-09T13:19:52;100091.91;;;24.12;64.84
41712;BME280;27399;51.516;13.670;2022-09-09T13:22:29;100092.78;;;24.12;65.43
41712;BME280;27399;51.516;13.670;2022-09-09T13:27:53;100098.53;;;24.47;68.62
41712;BME280;27399;51.516;13.670;2022-09-09T13:33:04;100097.56;;;24.98;66.79
41712;BME280;27399;51.516;13.670;2022-09-09T13:35:31;100087.06;;;25.17;66.10
41712;BME280;27399;51.516;13.670;2022-09-09T13:37:58;100085.94;;;25.20;67.28
41712;BME280;27399;51.516;13.670;2022-09-09T13:40:24;100077.06;;;25.53;65.88
41712;BME280;27399;51.516;13.670;2022-09-09T13:42:56;100075.13;;;25.67;66.66
41712;BME280;27399;51.516;13.670;2022-09-09T13:45:24;100077.34;;;25.97;63.91
41712;BME280;27399;51.516;13.670;2022-09-09T13:47:54;100071.25;;;26.05;64.88
41712;BME280;27399;51.516;13.670;2022-09-09T13:50:28;100072.34;;;25.91;64.15
41712;BME280;27399;51.516;13.670;2022-09-09T13:52:58;100068.19;;;25.74;62.65
41712;BME280;27399;51.516;13.670;2022-09-09T13:55:27;100078.13;;;25.75;64.88
41712;BME280;27399;51.516;13.670;2022-09-09T13:57:58;100071.81;;;25.75;64.21
41712;BME280;27399;51.516;13.670;2022-09-09T14:00:26;100071.97;;;25.96;62.68
41712;BME280;27399;51.516;13.670;2022-09-09T14:02:52;100069.72;;;25.78;63.54
41712;BME280;27399;51.516;13.670;2022-09-09T14:05:20;100074.69;;;25.96;62.51
41712;BME280;27399;51.516;13.670;2022-09-09T14:07:48;100069.94;;;25.75;62.20
41712;BME280;27399;51.516;13.670;2022-09-09T14:10:14;100072.88;;;25.61;64.80
41712;BME280;27399;51.516;13.670;2022-09-09T14:12:40;100073.34;;;25.55;64.65
41712;BME280;27399;51.516;13.670;2022-09-09T14:15:09;100073.97;;;25.58;65.38
41712;BME280;27399;51.516;13.670;2022-09-09T14:17:35;100074.28;;;25.42;62.57
41712;BME280;27399;51.516;13.670;2022-09-09T14:20:05;100062.50;;;25.42;62.89
41712;BME280;27399;51.516;13.670;2022-09-09T14:22:35;100076.03;;;25.43;63.25
41712;BME280;27399;51.516;13.670;2022-09-09T14:25:01;100066.72;;;25.46;64.26
41712;BME280;27399;51.516;13.670;2022-09-09T14:27:26;100059.00;;;25.40;63.86
41712;BME280;27399;51.516;13.670;2022-09-09T14:29:52;100063.41;;;25.29;67.40
41712;BME280;27399;51.516;13.670;2022-09-09T14:32:20;100059.28;;;25.24;66.18
41712;BME280;27399;51.516;13.670;2022-09-09T14:34:46;100031.78;;;25.27;63.52
41712;BME280;27399;51.516;13.670;2022-09-09T14:37:19;100045.94;;;25.08;65.81
41712;BME280;27399;51.516;13.670;2022-09-09T14:39:45;100050.00;;;25.02;64.76
41712;BME280;27399;51.516;13.670;2022-09-09T14:42:12;100050.75;;;25.04;64.08
41712;BME280;27399;51.516;13.670;2022-09-09T14:44:38;100044.75;;;24.99;64.08
41712;BME280;27399;51.516;13.670;2022-09-09T14:47:05;100044.47;;;25.15;64.79